sensor_id;sensor_type;location;lat;lon;timestamp;P1;durP1;ratioP1;P2;durP2;ratioP2
75616;SDS011;64200;55.426;37.758;2023-05-07T00:02:57;6.93;;;3.77;;
75616;SDS011;64200;55.426;37.758;2023-05-07T00:07:57;9.75;;;5.00;;
75616;SDS011;64200;55.426;37.758;2023-05-07T00:12:58;10.70;;;4.32;;
75616;SDS011;64200;55.426;37.758;2023-05-07T00:17:58;9.40;;;4.70;;
75616;SDS011;64200;55.426;37.758;2023-05-07T00:22:59;7.07;;;3.65;;
75616;SDS011;64200;55.426;37.758;2023-05-07T00:27:59;8.97;;;3.97;;
75616;SDS011;64200;55.426;37.758;2023-05-07T00:33:03;8.35;;;3.92;;
75616;SDS011;64200;55.426;37.758;2023-05-07T00:38:04;8.25;;;4.05;;
75616;SDS011;64200;55.426;37.758;2023-05-07T00:43:04;7.55;;;4.43;;
75616;SDS011;64200;55.426;37.758;2023-05-07T00:48:06;7.70;;;4.03;;
75616;SDS011;64200;55.426;37.758;2023-05-07T00:53:07;7.55;;;3.92;;
75616;SDS011;64200;55.426;37.758;2023-05-07T00:58:07;5.72;;;3.67;;
75616;SDS011;64200;55.426;37.758;2023-05-07T01:03:08;6.28;;;4.13;;
75616;SDS011;64200;55.426;37.758;2023-05-07T01:08:09;9.43;;;4.57;;
75616;SDS011;64200;55.426;37.758;2023-05-07T01:13:10;5.53;;;3.47;;
75616;SDS011;64200;55.426;37.758;2023-05-07T01:18:13;7.93;;;3.40;;
75616;SDS011;64200;55.426;37.758;2023-05-07T01:23:14;8.85;;;3.80;;
75616;SDS011;64200;55.426;37.758;2023-05-07T01:28:15;5.68;;;3.53;;
75616;SDS011;64200;55.426;37.758;2023-05-07T01:33:17;7.38;;;3.03;;
75616;SDS011;64200;55.426;37.758;2023-05-07T01:38:21;5.75;;;3.63;;
75616;SDS011;64200;55.426;37.758;2023-05-07T01:43:23;6.32;;;3.50;;
75616;SDS011;64200;55.426;37.758;2023-05-07T01:48:24;6.13;;;3.45;;
75616;SDS011;64200;55.426;37.758;2023-05-07T01:53:26;5.32;;;3.05;;
75616;SDS011;64200;55.426;37.758;2023-05-07T01:58:28;7.55;;;3.42;;
75616;SDS011;64200;55.426;37.758;2023-05-07T02:03:28;5.10;;;3.45;;
75616;SDS011;64200;55.426;37.758;2023-05-07T02:08:29;6.35;;;3.00;;
75616;SDS011;64200;55.426;37.758;2023-05-07T02:13:31;6.95;;;4.07;;
75616;SDS011;64200;55.426;37.758;2023-05-07T02:18:32;5.60;;;3.35;;
75616;SDS011;64200;55.426;37.758;2023-05-07T02:23:33;5.55;;;3.67;;
75616;SDS011;64200;55.426;37.758;2023-05-07T02:28:34;6.75;;;4.07;;
75616;SDS011;64200;55.426;37.758;2023-05-07T02:33:37;6.20;;;3.88;;
75616;SDS011;64200;55.426;37.758;2023-05-07T02:38:38;8.23;;;4.27;;
75616;SDS011;64200;55.426;37.758;2023-05-07T02:43:38;6.72;;;4.07;;
75616;SDS011;64200;55.426;37.758;2023-05-07T02:48:39;6.05;;;3.40;;
75616;SDS011;64200;55.426;37.758;2023-05-07T02:53:39;9.80;;;4.10;;
75616;SDS011;64200;55.426;37.758;2023-05-07T02:58:40;7.70;;;4.25;;
75616;SDS011;64200;55.426;37.758;2023-05-07T03:03:42;8.57;;;3.70;;
75616;SDS011;64200;55.426;37.758;2023-05-07T03:08:42;6.73;;;3.90;;
75616;SDS011;64200;55.426;37.758;2023-05-07T03:13:44;7.03;;;3.30;;
75616;SDS011;64200;55.426;37.758;2023-05-07T03:18:45;6.70;;;3.47;;
75616;SDS011;64200;55.426;37.758;2023-05-07T03:23:45;6.70;;;3.00;;
75616;SDS011;64200;55.426;37.758;2023-05-07T03:28:46;5.73;;;3.57;;
75616;SDS011;64200;55.426;37.758;2023-05-07T03:33:56;6.60;;;3.80;;
75616;SDS011;64200;55.426;37.758;2023-05-07T03:38:57;6.82;;;3.78;;
75616;SDS011;64200;55.426;37.758;2023-05-07T03:43:58;7.13;;;3.80;;
75616;SDS011;64200;55.426;37.758;2023-05-07T03:48:58;7.93;;;3.40;;
75616;SDS011;64200;55.426;37.758;2023-05-07T03:53:59;6.30;;;2.95;;
75616;SDS011;64200;55.426;37.758;2023-05-07T03:59:00;6.83;;;3.40;;
75616;SDS011;64200;55.426;37.758;2023-05-07T04:04:02;5.80;;;3.00;;
75616;SDS011;64200;55.426;37.758;2023-05-07T04:09:04;7.38;;;3.60;;
75616;SDS011;64200;55.426;37.758;2023-05-07T04:14:04;6.18;;;3.30;;
75616;SDS011;64200;55.426;37.758;2023-05-07T04:19:05;6.25;;;3.45;;
75616;SDS011;64200;55.426;37.758;2023-05-07T04:24:05;8.97;;;3.73;;
75616;SDS011;64200;55.426;37.758;2023-05-07T04:29:06;5.75;;;3.63;;
75616;SDS011;64200;55.426;37.758;2023-05-07T04:34:07;6.37;;;3.37;;
75616;SDS011;64200;55.426;37.758;2023-05-07T04:39:07;6.30;;;3.38;;
75616;SDS011;64200;55.426;37.758;2023-05-07T04:44:08;4.95;;;3.13;;
75616;SDS011;64200;55.426;37.758;2023-05-07T04:49:09;4.93;;;3.03;;
75616;SDS011;64200;55.426;37.758;2023-05-07T04:54:11;4.22;;;2.75;;
75616;SDS011;64200;55.426;37.758;2023-05-07T04:59:11;5.37;;;2.60;;
75616;SDS011;64200;55.426;37.758;2023-05-07T05:04:12;4.03;;;2.47;;
75616;SDS011;64200;55.426;37.758;2023-05-07T05:09:13;4.43;;;2.15;;
75616;SDS011;64200;55.426;37.758;2023-05-07T05:14:14;2.10;;;1.63;;
75616;SDS011;64200;55.426;37.758;2023-05-07T05:19:15;5.97;;;1.80;;
75616;SDS011;64200;55.426;37.758;2023-05-07T05:24:15;1.93;;;1.73;;
75616;SDS011;64200;55.426;37.758;2023-05-07T05:29:16;3.55;;;2.30;;
75616;SDS011;64200;55.426;37.758;2023-05-07T05:34:16;2.40;;;1.50;;
75616;SDS011;64200;55.426;37.758;2023-05-07T05:39:19;4.60;;;1.73;;
75616;SDS011;64200;55.426;37.758;2023-05-07T05:44:21;2.80;;;1.73;;
75616;SDS011;64200;55.426;37.758;2023-05-07T05:49:21;2.05;;;1.70;;
75616;SDS011;64200;55.426;37.758;2023-05-07T05:54:22;1.70;;;1.15;;
75616;SDS011;64200;55.426;37.758;2023-05-07T05:59:23;3.17;;;1.30;;
75616;SDS011;64200;55.426;37.758;2023-05-07T06:04:24;3.88;;;1.27;;
75616;SDS011;64200;55.426;37.758;2023-05-07T06:09:24;1.70;;;1.08;;
75616;SDS011;64200;55.426;37.758;2023-05-07T06:14:25;2.50;;;1.27;;
75616;SDS011;64200;55.426;37.758;2023-05-07T06:19:25;2.60;;;1.20;;
75616;SDS011;64200;55.426;37.758;2023-05-07T06:24:28;3.55;;;0.98;;
75616;SDS011;64200;55.426;37.758;2023-05-07T06:29:29;0.93;;;0.75;;
75616;SDS011;64200;55.426;37.758;2023-05-07T06:34:31;1.55;;;1.20;;
75616;SDS011;64200;55.426;37.758;2023-05-07T06:39:32;2.88;;;1.25;;
75616;SDS011;64200;55.426;37.758;2023-05-07T06:44:33;4.05;;;2.00;;
75616;SDS011;64200;55.426;37.758;2023-05-07T06:49:33;2.67;;;1.08;;
75616;SDS011;64200;55.426;37.758;2023-05-07T06:54:34;2.17;;;1.13;;
75616;SDS011;64200;55.426;37.758;2023-05-07T06:59:35;1.50;;;1.17;;
75616;SDS011;64200;55.426;37.758;2023-05-07T07:04:35;3.80;;;1.92;;
75616;SDS011;64200;55.426;37.758;2023-05-07T07:09:36;2.67;;;1.10;;
75616;SDS011;64200;55.426;37.758;2023-05-07T07:14:36;3.92;;;1.20;;
75616;SDS011;64200;55.426;37.758;2023-05-07T07:19:37;2.30;;;1.10;;
75616;SDS011;64200;55.426;37.758;2023-05-07T07:24:39;3.08;;;1.65;;
75616;SDS011;64200;55.426;37.758;2023-05-07T07:29:39;2.83;;;1.70;;
75616;SDS011;64200;55.426;37.758;2023-05-07T07:34:40;3.30;;;1.50;;
75616;SDS011;64200;55.426;37.758;2023-05-07T07:39:42;7.18;;;1.55;;
75616;SDS011;64200;55.426;37.758;2023-05-07T07:44:43;2.10;;;1.30;;
75616;SDS011;64200;55.426;37.758;2023-05-07T07:49:43;3.22;;;1.38;;
75616;SDS011;64200;55.426;37.758;2023-05-07T07:54:44;1.70;;;1.15;;
75616;SDS011;64200;55.426;37.758;2023-05-07T07:59:45;3.50;;;1.50;;
75616;SDS011;64200;55.426;37.758;2023-05-07T08:04:45;2.87;;;1.23;;
75616;SDS011;64200;55.426;37.758;2023-05-07T08:09:46;3.80;;;1.48;;
75616;SDS011;64200;55.426;37.758;2023-05-07T08:14:46;1.10;;;0.88;;
75616;SDS011;64200;55.426;37.758;2023-05-07T08:19:47;2.70;;;1.40;;
75616;SDS011;64200;55.426;37.758;2023-05-07T08:24:48;1.50;;;0.90;;
75616;SDS011;64200;55.426;37.758;2023-05-07T08:29:49;2.65;;;1.48;;
75616;SDS011;64200;55.426;37.758;2023-05-07T08:34:49;2.58;;;1.20;;
75616;SDS011;64200;55.426;37.758;2023-05-07T08:39:50;1.42;;;1.23;;
75616;SDS011;64200;55.426;37.758;2023-05-07T08:44:51;1.67;;;1.10;;
75616;SDS011;64200;55.426;37.758;2023-05-07T08:49:55;1.33;;;0.93;;
75616;SDS011;64200;55.426;37.758;2023-05-07T08:54:56;3.97;;;1.42;;
75616;SDS011;64200;55.426;37.758;2023-05-07T08:59:56;5.05;;;1.30;;
75616;SDS011;64200;55.426;37.758;2023-05-07T09:04:57;1.48;;;0.90;;
75616;SDS011;64200;55.426;37.758;2023-05-07T09:09:58;1.88;;;0.98;;
75616;SDS011;64200;55.426;37.758;2023-05-07T09:14:59;3.15;;;1.50;;
75616;SDS011;64200;55.426;37.758;2023-05-07T09:20:03;2.40;;;1.35;;
75616;SDS011;64200;55.426;37.758;2023-05-07T09:25:07;3.15;;;1.17;;
75616;SDS011;64200;55.426;37.758;2023-05-07T09:30:09;1.58;;;1.00;;
75616;SDS011;64200;55.426;37.758;2023-05-07T09:35:16;1.58;;;1.08;;
75616;SDS011;64200;55.426;37.758;2023-05-07T09:40:22;3.13;;;1.50;;
75616;SDS011;64200;55.426;37.758;2023-05-07T09:45:27;3.33;;;1.58;;
75616;SDS011;64200;55.426;37.758;2023-05-07T09:50:29;2.28;;;1.33;;
75616;SDS011;64200;55.426;37.758;2023-05-07T09:55:36;3.08;;;1.23;;
75616;SDS011;64200;55.426;37.758;2023-05-07T10:00:37;3.78;;;1.23;;
75616;SDS011;64200;55.426;37.758;2023-05-07T10:05:40;4.85;;;1.42;;
75616;SDS011;64200;55.426;37.758;2023-05-07T10:10:42;4.95;;;1.60;;
75616;SDS011;64200;55.426;37.758;2023-05-07T10:15:43;2.17;;;1.55;;
75616;SDS011;64200;55.426;37.758;2023-05-07T10:20:45;2.05;;;1.45;;
75616;SDS011;64200;55.426;37.758;2023-05-07T10:25:47;2.88;;;1.25;;
75616;SDS011;64200;55.426;37.758;2023-05-07T10:30:52;1.77;;;1.30;;
75616;SDS011;64200;55.426;37.758;2023-05-07T10:35:59;2.10;;;1.42;;
75616;SDS011;64200;55.426;37.758;2023-05-07T10:41:01;4.38;;;1.83;;
75616;SDS011;64200;55.426;37.758;2023-05-07T10:46:17;2.65;;;1.73;;
75616;SDS011;64200;55.426;37.758;2023-05-07T10:51:20;2.30;;;1.70;;
75616;SDS011;64200;55.426;37.758;2023-05-07T11:12:08;4.03;;;1.15;;
75616;SDS011;64200;55.426;37.758;2023-05-07T11:17:09;3.25;;;1.20;;
75616;SDS011;64200;55.426;37.758;2023-05-07T11:27:36;2.25;;;1.20;;
75616;SDS011;64200;55.426;37.758;2023-05-07T11:32:37;3.65;;;1.10;;
75616;SDS011;64200;55.426;37.758;2023-05-07T11:37:37;1.25;;;1.13;;
75616;SDS011;64200;55.426;37.758;2023-05-07T11:42:39;3.65;;;2.00;;
75616;SDS011;64200;55.426;37.758;2023-05-07T11:47:42;2.78;;;1.50;;
75616;SDS011;64200;55.426;37.758;2023-05-07T11:52:50;3.83;;;1.50;;
75616;SDS011;64200;55.426;37.758;2023-05-07T11:57:52;6.43;;;2.20;;
75616;SDS011;64200;55.426;37.758;2023-05-07T12:02:52;2.80;;;1.67;;
75616;SDS011;64200;55.426;37.758;2023-05-07T12:07:55;4.33;;;1.40;;
75616;SDS011;64200;55.426;37.758;2023-05-07T12:12:57;2.03;;;1.73;;
75616;SDS011;64200;55.426;37.758;2023-05-07T12:17:57;4.07;;;1.52;;
75616;SDS011;64200;55.426;37.758;2023-05-07T12:22:58;4.57;;;1.70;;
75616;SDS011;64200;55.426;37.758;2023-05-07T12:28:00;1.88;;;1.40;;
75616;SDS011;64200;55.426;37.758;2023-05-07T12:33:01;2.50;;;1.38;;
75616;SDS011;64200;55.426;37.758;2023-05-07T12:38:01;4.72;;;1.45;;
75616;SDS011;64200;55.426;37.758;2023-05-07T12:43:04;3.85;;;1.75;;
75616;SDS011;64200;55.426;37.758;2023-05-07T12:48:05;5.13;;;1.40;;
75616;SDS011;64200;55.426;37.758;2023-05-07T12:53:07;3.33;;;2.00;;
75616;SDS011;64200;55.426;37.758;2023-05-07T12:58:08;1.95;;;1.13;;
75616;SDS011;64200;55.426;37.758;2023-05-07T13:03:29;1.67;;;1.10;;
75616;SDS011;64200;55.426;37.758;2023-05-07T13:08:32;1.77;;;1.02;;
75616;SDS011;64200;55.426;37.758;2023-05-07T13:13:34;2.58;;;1.50;;
75616;SDS011;64200;55.426;37.758;2023-05-07T13:18:36;2.05;;;1.20;;
75616;SDS011;64200;55.426;37.758;2023-05-07T13:23:39;5.20;;;2.40;;
75616;SDS011;64200;55.426;37.758;2023-05-07T13:28:40;1.98;;;1.02;;
75616;SDS011;64200;55.426;37.758;2023-05-07T13:33:42;1.40;;;1.00;;
75616;SDS011;64200;55.426;37.758;2023-05-07T13:38:42;3.13;;;1.40;;
75616;SDS011;64200;55.426;37.758;2023-05-07T13:43:43;7.25;;;1.30;;
75616;SDS011;64200;55.426;37.758;2023-05-07T13:48:44;2.35;;;1.27;;
75616;SDS011;64200;55.426;37.758;2023-05-07T13:53:46;2.30;;;1.38;;
75616;SDS011;64200;55.426;37.758;2023-05-07T13:58:46;1.63;;;1.10;;
75616;SDS011;64200;55.426;37.758;2023-05-07T14:03:47;1.30;;;0.90;;
75616;SDS011;64200;55.426;37.758;2023-05-07T14:08:47;2.57;;;1.53;;
75616;SDS011;64200;55.426;37.758;2023-05-07T14:13:48;3.03;;;1.40;;
75616;SDS011;64200;55.426;37.758;2023-05-07T14:18:48;3.60;;;1.50;;
75616;SDS011;64200;55.426;37.758;2023-05-07T14:23:49;3.80;;;1.13;;
75616;SDS011;64200;55.426;37.758;2023-05-07T14:28:49;3.05;;;1.13;;
75616;SDS011;64200;55.426;37.758;2023-05-07T14:33:50;1.47;;;1.00;;
75616;SDS011;64200;55.426;37.758;2023-05-07T14:38:50;2.75;;;0.98;;
75616;SDS011;64200;55.426;37.758;2023-05-07T14:43:51;1.83;;;1.13;;
75616;SDS011;64200;55.426;37.758;2023-05-07T14:48:52;3.35;;;1.20;;
75616;SDS011;64200;55.426;37.758;2023-05-07T14:53:52;3.40;;;1.02;;
75616;SDS011;64200;55.426;37.758;2023-05-07T14:58:53;1.85;;;1.38;;
75616;SDS011;64200;55.426;37.758;2023-05-07T15:03:54;3.97;;;1.60;;
75616;SDS011;64200;55.426;37.758;2023-05-07T15:08:54;2.83;;;1.42;;
75616;SDS011;64200;55.426;37.758;2023-05-07T15:13:55;2.75;;;1.10;;
75616;SDS011;64200;55.426;37.758;2023-05-07T15:18:56;2.53;;;1.23;;
75616;SDS011;64200;55.426;37.758;2023-05-07T15:23:57;2.42;;;1.48;;
75616;SDS011;64200;55.426;37.758;2023-05-07T15:28:57;4.20;;;2.03;;
75616;SDS011;64200;55.426;37.758;2023-05-07T15:33:59;4.28;;;1.77;;
75616;SDS011;64200;55.426;37.758;2023-05-07T15:39:00;4.05;;;1.88;;
75616;SDS011;64200;55.426;37.758;2023-05-07T15:44:02;6.00;;;3.15;;
75616;SDS011;64200;55.426;37.758;2023-05-07T15:49:03;4.13;;;1.95;;
75616;SDS011;64200;55.426;37.758;2023-05-07T15:54:04;4.80;;;2.47;;
75616;SDS011;64200;55.426;37.758;2023-05-07T15:59:05;5.90;;;2.60;;
75616;SDS011;64200;55.426;37.758;2023-05-07T16:04:06;8.35;;;3.80;;
75616;SDS011;64200;55.426;37.758;2023-05-07T16:09:07;8.27;;;3.65;;
75616;SDS011;64200;55.426;37.758;2023-05-07T16:14:09;6.85;;;5.53;;
75616;SDS011;64200;55.426;37.758;2023-05-07T16:19:09;8.15;;;4.70;;
75616;SDS011;64200;55.426;37.758;2023-05-07T16:24:10;7.40;;;4.03;;
75616;SDS011;64200;55.426;37.758;2023-05-07T16:29:10;9.27;;;4.10;;
75616;SDS011;64200;55.426;37.758;2023-05-07T16:34:11;16.02;;;5.93;;
75616;SDS011;64200;55.426;37.758;2023-05-07T16:39:13;10.23;;;4.55;;
75616;SDS011;64200;55.426;37.758;2023-05-07T16:44:13;5.77;;;3.50;;
75616;SDS011;64200;55.426;37.758;2023-05-07T16:49:14;7.95;;;2.90;;
75616;SDS011;64200;55.426;37.758;2023-05-07T16:54:15;8.40;;;2.83;;
75616;SDS011;64200;55.426;37.758;2023-05-07T16:59:15;8.20;;;2.92;;
75616;SDS011;64200;55.426;37.758;2023-05-07T17:04:16;13.25;;;4.05;;
75616;SDS011;64200;55.426;37.758;2023-05-07T17:09:17;32.33;;;17.08;;
75616;SDS011;64200;55.426;37.758;2023-05-07T17:14:18;19.27;;;8.83;;
75616;SDS011;64200;55.426;37.758;2023-05-07T17:19:18;15.32;;;9.10;;
75616;SDS011;64200;55.426;37.758;2023-05-07T17:24:19;8.98;;;4.80;;
75616;SDS011;64200;55.426;37.758;2023-05-07T17:29:20;10.48;;;2.95;;
75616;SDS011;64200;55.426;37.758;2023-05-07T17:34:21;4.40;;;2.72;;
75616;SDS011;64200;55.426;37.758;2023-05-07T17:39:22;6.47;;;2.67;;
75616;SDS011;64200;55.426;37.758;2023-05-07T17:44:23;6.60;;;4.22;;
75616;SDS011;64200;55.426;37.758;2023-05-07T17:49:24;10.43;;;4.72;;
75616;SDS011;64200;55.426;37.758;2023-05-07T17:54:24;13.10;;;6.75;;
75616;SDS011;64200;55.426;37.758;2023-05-07T17:59:26;35.45;;;17.42;;
75616;SDS011;64200;55.426;37.758;2023-05-07T18:04:27;31.77;;;14.15;;
75616;SDS011;64200;55.426;37.758;2023-05-07T18:09:28;35.03;;;16.33;;
75616;SDS011;64200;55.426;37.758;2023-05-07T18:14:28;26.13;;;12.45;;
75616;SDS011;64200;55.426;37.758;2023-05-07T18:19:29;17.20;;;8.90;;
75616;SDS011;64200;55.426;37.758;2023-05-07T18:24:30;14.30;;;7.43;;
75616;SDS011;64200;55.426;37.758;2023-05-07T18:29:30;13.73;;;7.72;;
75616;SDS011;64200;55.426;37.758;2023-05-07T18:34:31;13.88;;;6.57;;
75616;SDS011;64200;55.426;37.758;2023-05-07T18:39:32;13.70;;;5.85;;
75616;SDS011;64200;55.426;37.758;2023-05-07T18:44:34;18.55;;;6.93;;
75616;SDS011;64200;55.426;37.758;2023-05-07T18:49:37;14.35;;;7.10;;
75616;SDS011;64200;55.426;37.758;2023-05-07T18:54:38;7.80;;;4.40;;
75616;SDS011;64200;55.426;37.758;2023-05-07T18:59:39;13.33;;;5.27;;
75616;SDS011;64200;55.426;37.758;2023-05-07T19:04:39;14.77;;;4.82;;
75616;SDS011;64200;55.426;37.758;2023-05-07T19:09:40;13.43;;;6.32;;
75616;SDS011;64200;55.426;37.758;2023-05-07T19:14:40;12.68;;;5.72;;
75616;SDS011;64200;55.426;37.758;2023-05-07T19:19:41;13.95;;;6.45;;
75616;SDS011;64200;55.426;37.758;2023-05-07T19:24:47;15.13;;;5.57;;
75616;SDS011;64200;55.426;37.758;2023-05-07T19:29:48;12.02;;;5.45;;
75616;SDS011;64200;55.426;37.758;2023-05-07T19:34:48;11.47;;;6.10;;
75616;SDS011;64200;55.426;37.758;2023-05-07T19:39:49;12.20;;;7.10;;
75616;SDS011;64200;55.426;37.758;2023-05-07T19:44:51;13.45;;;6.10;;
75616;SDS011;64200;55.426;37.758;2023-05-07T19:49:52;14.10;;;6.60;;
75616;SDS011;64200;55.426;37.758;2023-05-07T19:54:52;12.03;;;5.33;;
75616;SDS011;64200;55.426;37.758;2023-05-07T19:59:53;13.18;;;6.25;;
75616;SDS011;64200;55.426;37.758;2023-05-07T20:04:54;18.37;;;9.17;;
75616;SDS011;64200;55.426;37.758;2023-05-07T20:09:54;18.07;;;7.13;;
75616;SDS011;64200;55.426;37.758;2023-05-07T20:14:55;16.77;;;8.47;;
75616;SDS011;64200;55.426;37.758;2023-05-07T20:19:55;16.20;;;7.60;;
75616;SDS011;64200;55.426;37.758;2023-05-07T20:24:56;16.07;;;8.13;;
75616;SDS011;64200;55.426;37.758;2023-05-07T20:29:57;15.25;;;6.30;;
75616;SDS011;64200;55.426;37.758;2023-05-07T20:34:57;12.77;;;6.67;;
75616;SDS011;64200;55.426;37.758;2023-05-07T20:39:58;15.73;;;7.20;;
75616;SDS011;64200;55.426;37.758;2023-05-07T20:45:00;13.63;;;6.90;;
75616;SDS011;64200;55.426;37.758;2023-05-07T20:50:01;17.83;;;7.65;;
75616;SDS011;64200;55.426;37.758;2023-05-07T20:55:02;14.13;;;7.50;;
75616;SDS011;64200;55.426;37.758;2023-05-07T21:00:03;18.70;;;7.28;;
75616;SDS011;64200;55.426;37.758;2023-05-07T21:05:05;12.00;;;6.68;;
75616;SDS011;64200;55.426;37.758;2023-05-07T21:10:05;17.73;;;7.97;;
75616;SDS011;64200;55.426;37.758;2023-05-07T21:15:06;14.60;;;7.03;;
75616;SDS011;64200;55.426;37.758;2023-05-07T21:20:08;8.95;;;6.10;;
75616;SDS011;64200;55.426;37.758;2023-05-07T21:25:09;17.38;;;6.63;;
75616;SDS011;64200;55.426;37.758;2023-05-07T21:30:09;17.40;;;6.13;;
75616;SDS011;64200;55.426;37.758;2023-05-07T21:35:10;11.90;;;5.35;;
75616;SDS011;64200;55.426;37.758;2023-05-07T21:40:11;10.98;;;6.00;;
75616;SDS011;64200;55.426;37.758;2023-05-07T21:45:12;9.75;;;5.75;;
75616;SDS011;64200;55.426;37.758;2023-05-07T21:50:12;13.02;;;5.95;;
75616;SDS011;64200;55.426;37.758;2023-05-07T21:55:13;15.02;;;6.10;;
75616;SDS011;64200;55.426;37.758;2023-05-07T22:00:13;17.58;;;8.20;;
75616;SDS011;64200;55.426;37.758;2023-05-07T22:05:15;15.80;;;8.75;;
75616;SDS011;64200;55.426;37.758;2023-05-07T22:10:15;16.87;;;7.97;;
75616;SDS011;64200;55.426;37.758;2023-05-07T22:15:20;14.80;;;8.98;;
75616;SDS011;64200;55.426;37.758;2023-05-07T22:20:21;29.05;;;12.77;;
75616;SDS011;64200;55.426;37.758;2023-05-07T22:25:22;23.65;;;11.90;;
75616;SDS011;64200;55.426;37.758;2023-05-07T22:30:23;11.77;;;7.13;;
75616;SDS011;64200;55.426;37.758;2023-05-07T22:35:24;16.48;;;7.60;;
75616;SDS011;64200;55.426;37.758;2023-05-07T22:40:25;20.55;;;9.15;;
75616;SDS011;64200;55.426;37.758;2023-05-07T22:45:25;16.93;;;8.67;;
75616;SDS011;64200;55.426;37.758;2023-05-07T22:50:26;15.47;;;8.50;;
75616;SDS011;64200;55.426;37.758;2023-05-07T22:55:26;16.93;;;8.17;;
75616;SDS011;64200;55.426;37.758;2023-05-07T23:00:27;12.88;;;7.07;;
75616;SDS011;64200;55.426;37.758;2023-05-07T23:05:27;19.85;;;10.05;;
75616;SDS011;64200;55.426;37.758;2023-05-07T23:10:28;10.40;;;6.63;;
75616;SDS011;64200;55.426;37.758;2023-05-07T23:15:29;11.75;;;6.90;;
75616;SDS011;64200;55.426;37.758;2023-05-07T23:20:30;14.45;;;7.45;;
75616;SDS011;64200;55.426;37.758;2023-05-07T23:25:30;16.45;;;6.60;;
75616;SDS011;64200;55.426;37.758;2023-05-07T23:30:31;11.98;;;5.95;;
75616;SDS011;64200;55.426;37.758;2023-05-07T23:35:32;8.35;;;5.22;;
75616;SDS011;64200;55.426;37.758;2023-05-07T23:40:32;10.60;;;5.50;;
75616;SDS011;64200;55.426;37.758;2023-05-07T23:45:33;12.23;;;5.90;;
75616;SDS011;64200;55.426;37.758;2023-05-07T23:50:33;10.38;;;5.88;;
75616;SDS011;64200;55.426;37.758;2023-05-07T23:55:34;12.02;;;5.13;;
